createdAt,value
2023-04-12T00:00:42.048Z,94477.47
2023-04-12T00:03:11.153Z,94475.78
2023-04-12T00:05:38.969Z,94467.91
2023-04-12T00:08:06.796Z,94471.22
2023-04-12T00:10:34.459Z,94472.56
2023-04-12T00:13:02.129Z,94473.84
2023-04-12T00:15:29.798Z,94454.72
2023-04-12T00:17:57.569Z,94463.50
2023-04-12T00:20:27.181Z,94455.25
2023-04-12T00:22:54.799Z,94446.34
2023-04-12T00:25:22.391Z,94445.66
2023-04-12T00:27:50.003Z,94446.94
2023-04-12T00:30:17.598Z,94442.59
2023-04-12T00:32:45.310Z,94436.75
2023-04-12T00:35:13.016Z,94440.66
2023-04-12T00:37:42.028Z,94438.31
2023-04-12T00:40:10.757Z,94437.28
2023-04-12T00:42:39.019Z,94439.38
2023-04-12T00:45:08.261Z,94429.03
2023-04-12T00:47:36.831Z,94428.59
2023-04-12T00:50:05.898Z,94435.03
2023-04-12T00:52:34.525Z,94426.72
2023-04-12T00:55:04.567Z,94426.13
2023-04-12T00:57:36.566Z,94418.25
2023-04-12T01:00:05.360Z,94423.19
2023-04-12T01:02:33.457Z,94419.44
2023-04-12T01:05:01.400Z,94429.41
2023-04-12T01:07:39.069Z,94426.50
2023-04-12T01:10:11.208Z,94425.19
2023-04-12T01:12:40.933Z,94424.53
2023-04-12T01:15:11.165Z,94428.44
2023-04-12T01:17:41.919Z,94427.00
2023-04-12T01:20:17.101Z,94423.03
2023-04-12T01:23:19.079Z,94430.38
2023-04-12T01:26:01.075Z,94422.72
2023-04-12T01:28:34.131Z,94418.63
2023-04-12T01:31:02.555Z,94416.97
2023-04-12T01:33:31.605Z,94419.56
2023-04-12T01:36:00.901Z,94412.69
2023-04-12T01:38:29.064Z,94415.63
2023-04-12T01:40:56.974Z,94406.72
2023-04-12T01:43:24.719Z,94412.56
2023-04-12T01:45:53.757Z,94414.81
2023-04-12T01:48:21.963Z,94409.41
2023-04-12T01:50:59.704Z,94409.84
2023-04-12T01:53:32.844Z,94412.56
2023-04-12T01:56:05.676Z,94413.59
2023-04-12T01:58:33.362Z,94415.91
2023-04-12T02:01:02.970Z,94414.47
2023-04-12T02:03:31.600Z,94421.25
2023-04-12T02:06:00.829Z,94415.63
2023-04-12T02:08:28.640Z,94421.25
2023-04-12T02:10:56.256Z,94417.56
2023-04-12T02:13:24.626Z,94426.84
2023-04-12T02:15:54.481Z,94427.06
2023-04-12T02:18:24.382Z,94435.75
2023-04-12T02:20:52.001Z,94431.03
2023-04-12T02:23:19.630Z,94434.19
2023-04-12T02:25:47.469Z,94426.16
2023-04-12T02:28:15.125Z,94408.78
2023-04-12T02:30:42.808Z,94407.13
2023-04-12T02:33:11.838Z,94414.97
2023-04-12T02:35:40.944Z,94407.88
2023-04-12T02:38:09.168Z,94409.06
2023-04-12T02:40:40.717Z,94397.69
2023-04-12T02:43:08.824Z,94401.00
2023-04-12T02:45:36.471Z,94401.22
2023-04-12T02:48:05.406Z,94397.69
2023-04-12T02:50:33.110Z,94384.06
2023-04-12T02:53:02.055Z,94375.53
2023-04-12T02:55:30.574Z,94373.44
2023-04-12T02:57:58.357Z,94361.00
2023-04-12T03:00:26.384Z,94360.84
2023-04-12T03:02:54.222Z,94349.69
2023-04-12T03:05:22.059Z,94342.81
2023-04-12T03:07:50.076Z,94334.94
2023-04-12T03:10:19.077Z,94344.06
2023-04-12T03:12:46.718Z,94337.03
2023-04-12T03:15:14.397Z,94334.94
2023-04-12T03:17:42.966Z,94323.81
2023-04-12T03:20:10.933Z,94322.59
2023-04-12T03:22:38.637Z,94325.06
2023-04-12T03:25:07.120Z,94321.19
2023-04-12T03:27:36.139Z,94318.56
2023-04-12T03:30:04.074Z,94306.94
2023-04-12T03:32:31.707Z,94319.97
2023-04-12T03:35:00.318Z,94302.13
2023-04-12T03:37:28.026Z,94299.28
2023-04-12T03:39:55.693Z,94299.91
2023-04-12T03:42:33.030Z,94300.81
2023-04-12T03:45:02.722Z,94297.28
2023-04-12T03:47:30.606Z,94296.00
2023-04-12T03:50:11.422Z,94285.81
2023-04-12T03:52:40.488Z,94280.19
2023-04-12T03:55:08.810Z,94283.75
2023-04-12T03:57:36.611Z,94276.25
2023-04-12T04:00:08.534Z,94274.38
2023-04-12T04:02:36.756Z,94268.16
2023-04-12T04:05:04.995Z,94275.19
2023-04-12T04:07:33.048Z,94269.72
2023-04-12T04:10:01.063Z,94261.19
2023-04-12T04:12:28.881Z,94264.72
2023-04-12T04:14:56.520Z,94259.78
2023-04-12T04:17:25.503Z,94255.44
2023-04-12T04:19:53.196Z,94258.56
2023-04-12T04:22:21.582Z,94257.53
2023-04-12T04:24:50.191Z,94256.50
2023-04-12T04:27:17.786Z,94256.03
2023-04-12T04:29:45.594Z,94250.03
2023-04-12T04:32:13.671Z,94251.09
2023-04-12T04:34:43.519Z,94237.16
2023-04-12T04:37:12.366Z,94247.47
2023-04-12T04:39:40.126Z,94240.38
2023-04-12T04:42:07.834Z,94239.31
2023-04-12T04:44:37.274Z,94228.16
2023-04-12T04:47:06.756Z,94221.28
2023-04-12T04:49:34.544Z,94215.41
2023-04-12T04:52:04.126Z,94222.41
2023-04-12T04:54:33.186Z,94217.59
2023-04-12T04:57:01.670Z,94206.59
2023-04-12T04:59:29.360Z,94202.72
2023-04-12T05:01:56.942Z,94203.69
2023-04-12T05:04:24.770Z,94208.41
2023-04-12T05:06:53.711Z,94206.28
2023-04-12T05:09:22.759Z,94204.03
2023-04-12T05:11:50.733Z,94207.81
2023-04-12T05:14:18.403Z,94199.72
2023-04-12T05:16:46.088Z,94197.63
2023-04-12T05:19:13.850Z,94190.47
2023-04-12T05:21:41.500Z,94187.19
2023-04-12T05:24:09.654Z,94184.72
2023-04-12T05:26:38.642Z,94178.75
2023-04-12T05:29:06.510Z,94179.78
2023-04-12T05:31:34.136Z,94167.22
2023-04-12T05:34:01.758Z,94173.56
2023-04-12T05:36:29.414Z,94161.50
2023-04-12T05:38:57.480Z,94166.88
2023-04-12T05:41:25.310Z,94169.00
2023-04-12T05:43:54.348Z,94169.22
2023-04-12T05:46:21.983Z,94164.81
2023-04-12T05:48:49.632Z,94160.59
2023-04-12T05:51:19.487Z,94157.31
2023-04-12T05:53:50.633Z,94151.91
2023-04-12T05:56:18.262Z,94145.84
2023-04-12T05:58:47.193Z,94146.06
2023-04-12T06:01:19.351Z,94136.69
2023-04-12T06:03:46.962Z,94139.50
2023-04-12T06:06:15.512Z,94145.13
2023-04-12T06:08:43.239Z,94143.50
2023-04-12T06:11:12.159Z,94131.06
2023-04-12T06:13:40.426Z,94136.59
2023-04-12T06:16:08.581Z,94128.84
2023-04-12T06:18:37.670Z,94130.84
2023-04-12T06:21:05.969Z,94122.53
2023-04-12T06:23:33.608Z,94120.06
2023-04-12T06:26:01.240Z,94123.34
2023-04-12T06:28:28.897Z,94118.56
2023-04-12T06:30:56.732Z,94112.69
2023-04-12T06:33:24.447Z,94118.47
2023-04-12T06:35:53.480Z,94106.25
2023-04-12T06:38:21.190Z,94105.78
2023-04-12T06:40:48.936Z,94104.16
2023-04-12T06:43:19.098Z,94106.84
2023-04-12T06:45:47.027Z,94096.44
2023-04-12T06:48:14.672Z,94104.03
2023-04-12T06:50:42.375Z,94101.22
2023-04-12T06:53:13.429Z,94109.06
2023-04-12T06:55:41.142Z,94100.63
2023-04-12T06:58:08.775Z,94097.47
2023-04-12T07:00:36.607Z,94092.19
2023-04-12T07:03:04.400Z,94094.53
2023-04-12T07:05:32.100Z,94086.66
2023-04-12T07:07:59.746Z,94085.25
2023-04-12T07:10:28.766Z,94086.97
2023-04-12T07:12:57.496Z,94085.81
2023-04-12T07:15:25.198Z,94077.25
2023-04-12T07:17:52.844Z,94076.28
2023-04-12T07:20:20.479Z,94060.66
2023-04-12T07:22:48.083Z,94076.41
2023-04-12T07:25:15.836Z,94072.41
2023-04-12T07:27:44.802Z,94069.25
2023-04-12T07:30:13.576Z,94083.44
2023-04-12T07:32:41.333Z,94067.75
2023-04-12T07:35:09.778Z,94055.06
2023-04-12T07:37:38.965Z,94044.47
2023-04-12T07:40:07.893Z,94037.75
2023-04-12T07:42:35.530Z,94041.13
2023-04-12T07:45:04.763Z,94031.44
2023-04-12T07:47:32.830Z,94011.72
2023-04-12T07:50:00.670Z,94015.00
2023-04-12T07:52:28.341Z,94015.91
2023-04-12T07:54:56.117Z,94013.88
2023-04-12T07:57:24.292Z,94007.81
2023-04-12T07:59:51.950Z,93992.63
2023-04-12T08:02:26.063Z,94002.66
2023-04-12T08:04:54.161Z,93991.06
2023-04-12T08:07:22.373Z,93991.28
2023-04-12T08:09:50.972Z,93985.34
2023-04-12T08:12:18.620Z,93981.91
2023-04-12T08:14:46.354Z,93973.56
2023-04-12T08:17:14.024Z,93983.81
2023-04-12T08:19:43.068Z,93975.03
2023-04-12T08:22:13.129Z,93972.25
2023-04-12T08:24:41.517Z,93969.06
2023-04-12T08:27:09.202Z,93962.41
2023-04-12T08:29:36.831Z,93962.66
2023-04-12T08:32:05.218Z,93956.25
2023-04-12T08:34:33.115Z,93940.91
2023-04-12T08:37:02.117Z,93915.50
2023-04-12T08:39:29.736Z,93936.81
2023-04-12T08:41:58.172Z,93934.56
2023-04-12T08:44:37.012Z,93935.84
2023-04-12T08:47:05.900Z,93933.56
2023-04-12T08:49:35.048Z,93929.91
2023-04-12T08:52:05.647Z,93916.25
2023-04-12T08:54:33.570Z,93912.63
2023-04-12T08:57:02.707Z,93922.41
2023-04-12T08:59:31.320Z,93914.97
2023-04-12T09:01:59.740Z,93908.09
2023-04-12T09:04:27.559Z,93906.44
2023-04-12T09:06:55.300Z,93906.75
2023-04-12T09:09:41.566Z,93898.09
2023-04-12T09:12:10.490Z,93895.38
2023-04-12T09:14:39.390Z,93893.88
2023-04-12T09:17:07.137Z,93890.75
2023-04-12T09:19:35.954Z,93884.69
2023-04-12T09:22:03.952Z,93888.28
2023-04-12T09:24:32.028Z,93882.91
2023-04-12T09:27:06.124Z,93876.97
2023-04-12T09:29:34.631Z,93869.56
2023-04-12T09:32:04.068Z,93875.00
2023-04-12T09:34:32.121Z,93871.75
2023-04-12T09:37:00.094Z,93871.88
2023-04-12T09:39:34.562Z,93859.81
2023-04-12T09:42:18.006Z,93850.31
2023-04-12T09:44:54.512Z,93845.78
2023-04-12T09:47:22.414Z,93856.97
2023-04-12T09:49:50.170Z,93851.06
2023-04-12T09:52:17.785Z,93828.59
2023-04-12T09:54:46.762Z,93837.56
2023-04-12T09:57:18.146Z,93837.00
2023-04-12T09:59:49.941Z,93841.94
2023-04-12T10:02:19.577Z,93827.25
2023-04-12T10:04:49.492Z,93824.50
2023-04-12T10:07:17.561Z,93809.44
2023-04-12T10:09:45.336Z,93801.22
2023-04-12T10:12:12.981Z,93806.66
2023-04-12T10:14:43.403Z,93807.97
2023-04-12T10:17:12.049Z,93799.31
2023-04-12T10:19:40.780Z,93797.31
2023-04-12T10:22:08.408Z,93787.69
2023-04-12T10:24:36.386Z,93789.53
2023-04-12T10:27:04.600Z,93782.06
2023-04-12T10:29:34.524Z,93786.56
2023-04-12T10:32:21.703Z,93780.09
2023-04-12T10:34:53.315Z,93780.47
2023-04-12T10:37:21.259Z,93773.75
2023-04-12T10:39:53.945Z,93772.22
2023-04-12T10:42:24.181Z,93768.53
2023-04-12T10:44:53.015Z,93767.94
2023-04-12T10:48:03.876Z,93768.59
2023-04-12T10:50:32.602Z,93778.72
2023-04-12T10:53:22.808Z,93773.63
2023-04-12T10:55:50.644Z,93773.28
2023-04-12T10:58:55.840Z,93772.13
2023-04-12T11:01:23.725Z,93761.47
2023-04-12T11:04:10.442Z,93751.34
2023-04-12T11:06:59.903Z,93746.41
2023-04-12T11:09:29.383Z,93745.84
2023-04-12T11:12:13.354Z,93742.09
2023-04-12T11:14:45.840Z,93742.81
2023-04-12T11:17:27.065Z,93733.22
2023-04-12T11:19:58.758Z,93732.13
2023-04-12T11:22:28.783Z,93736.84
2023-04-12T11:24:57.999Z,93741.00
2023-04-12T11:27:26.960Z,93726.25
2023-04-12T11:29:56.617Z,93718.41
2023-04-12T11:32:26.544Z,93722.09
2023-04-12T11:34:56.579Z,93717.06
2023-04-12T11:37:26.761Z,93717.91
2023-04-12T11:39:56.860Z,93721.94
2023-04-12T11:42:25.757Z,93713.25
2023-04-12T11:44:57.721Z,93716.41
2023-04-12T11:47:28.530Z,93707.44
2023-04-12T11:49:59.092Z,93713.53
2023-04-12T11:52:30.360Z,93708.63
2023-04-12T11:55:00.067Z,93711.28
2023-04-12T11:57:28.954Z,93698.06
2023-04-12T11:59:58.523Z,93712.22
2023-04-12T12:02:30.280Z,93712.69
2023-04-12T12:05:01.275Z,93697.41
2023-04-12T12:07:29.786Z,93700.13
2023-04-12T12:09:57.813Z,93699.53
2023-04-12T12:12:26.025Z,93704.47
2023-04-12T12:14:53.659Z,93712.50
2023-04-12T12:17:21.298Z,93715.56
2023-04-12T12:19:48.975Z,93715.34
2023-04-12T12:22:19.161Z,93722.66
2023-04-12T12:24:52.528Z,93713.59
2023-04-12T12:27:21.726Z,93717.16
2023-04-12T12:29:54.344Z,93723.13
2023-04-12T12:32:23.525Z,93709.97
2023-04-12T12:34:53.154Z,93711.13
2023-04-12T12:37:31.772Z,93703.69
2023-04-12T12:40:07.272Z,93702.38
2023-04-12T12:42:35.939Z,93703.06
2023-04-12T12:45:04.421Z,93702.94
2023-04-12T12:47:32.495Z,93705.78
2023-04-12T12:50:00.222Z,93707.00
2023-04-12T12:52:27.855Z,93697.25
2023-04-12T12:54:56.881Z,93691.47
2023-04-12T12:57:24.501Z,93687.53
2023-04-12T12:59:52.182Z,93685.28
2023-04-12T13:02:19.922Z,93688.19
2023-04-12T13:04:47.857Z,93687.66
2023-04-12T13:07:15.622Z,93687.66
2023-04-12T13:09:43.293Z,93687.66
2023-04-12T13:12:15.117Z,93676.50
2023-04-12T13:14:42.895Z,93672.47
2023-04-12T13:17:10.517Z,93679.56
2023-04-12T13:19:38.192Z,93675.41
2023-04-12T13:22:07.351Z,93671.75
2023-04-12T13:24:35.927Z,93678.63
2023-04-12T13:27:03.777Z,93683.22
2023-04-12T13:29:32.855Z,93685.53
2023-04-12T13:32:00.582Z,93684.91
2023-04-12T13:34:28.278Z,93681.00
2023-04-12T13:36:55.914Z,93678.56
2023-04-12T13:39:23.583Z,93666.56
2023-04-12T13:41:51.508Z,93669.00
2023-04-12T13:44:19.178Z,93666.91
2023-04-12T13:46:48.124Z,93661.53
2023-04-12T13:49:15.935Z,93655.88
2023-04-12T13:51:43.575Z,93656.56
2023-04-12T13:54:11.180Z,93653.41
2023-04-12T13:56:38.797Z,93661.44
2023-04-12T13:59:06.489Z,93660.41
2023-04-12T14:01:34.141Z,93657.94
2023-04-12T14:04:03.976Z,93656.72
2023-04-12T14:06:32.429Z,93646.94
2023-04-12T14:09:00.310Z,93639.00
2023-04-12T14:11:27.935Z,93647.50
2023-04-12T14:13:55.734Z,93638.97
2023-04-12T14:16:23.344Z,93627.56
2023-04-12T14:18:50.924Z,93625.34
2023-04-12T14:21:19.818Z,93626.03
2023-04-12T14:23:47.379Z,93615.63
2023-04-12T14:26:17.041Z,93614.72
2023-04-12T14:28:44.744Z,93609.72
2023-04-12T14:31:14.769Z,93622.94
2023-04-12T14:33:42.519Z,93609.28
2023-04-12T14:36:10.840Z,93606.47
2023-04-12T14:38:39.814Z,93607.94
2023-04-12T14:41:08.574Z,93607.81
2023-04-12T14:43:36.300Z,93595.06
2023-04-12T14:46:03.933Z,93606.66
2023-04-12T14:48:31.643Z,93621.97
2023-04-12T14:50:59.245Z,93624.25
2023-04-12T14:53:26.948Z,93618.53
2023-04-12T14:55:55.914Z,93622.00
2023-04-12T14:58:23.751Z,93618.72
2023-04-12T15:00:51.446Z,93610.94
2023-04-12T15:03:20.922Z,93596.59
2023-04-12T15:05:49.139Z,93602.09
2023-04-12T15:08:17.041Z,93602.72
2023-04-12T15:10:44.719Z,93596.41
2023-04-12T15:13:13.727Z,93592.22
2023-04-12T15:15:41.721Z,93597.09
2023-04-12T15:18:09.791Z,93592.63
2023-04-12T15:20:38.163Z,93590.38
2023-04-12T15:23:06.661Z,93598.19
2023-04-12T15:25:34.368Z,93588.31
2023-04-12T15:28:02.998Z,93588.63
2023-04-12T15:30:32.684Z,93592.50
2023-04-12T15:33:00.740Z,93580.72
2023-04-12T15:35:28.489Z,93570.06
2023-04-12T15:37:56.124Z,93578.91
2023-04-12T15:40:24.293Z,93575.63
2023-04-12T15:42:52.034Z,93574.25
2023-04-12T15:45:19.664Z,93574.03
2023-04-12T15:47:48.772Z,93582.91
2023-04-12T15:50:16.515Z,93576.50
2023-04-12T15:52:44.336Z,93568.00
2023-04-12T15:55:12.687Z,93569.31
2023-04-12T15:57:40.372Z,93573.84
2023-04-12T16:00:20.916Z,93567.28
2023-04-12T16:02:54.724Z,93571.69
2023-04-12T16:05:22.728Z,93573.34
2023-04-12T16:07:51.150Z,93574.34
2023-04-12T16:10:20.999Z,93581.16
2023-04-12T16:12:49.635Z,93570.53
2023-04-12T16:15:18.098Z,93557.88
2023-04-12T16:17:47.085Z,93561.22
2023-04-12T16:20:21.428Z,93559.78
2023-04-12T16:22:49.815Z,93556.34
2023-04-12T16:25:17.896Z,93552.31
2023-04-12T16:27:45.983Z,93561.13
2023-04-12T16:30:15.633Z,93552.72
2023-04-12T16:32:43.848Z,93551.41
2023-04-12T16:35:11.743Z,93556.66
2023-04-12T16:37:40.802Z,93561.59
2023-04-12T16:40:10.457Z,93551.78
2023-04-12T16:42:38.138Z,93556.72
2023-04-12T16:45:07.164Z,93553.63
2023-04-12T16:47:35.602Z,93550.31
2023-04-12T16:50:03.866Z,93549.22
2023-04-12T16:52:31.961Z,93551.09
2023-04-12T16:55:01.066Z,93552.81
2023-04-12T16:57:29.714Z,93545.00
2023-04-12T16:59:57.630Z,93546.41
2023-04-12T17:02:26.052Z,93541.09
2023-04-12T17:04:53.939Z,93547.88
2023-04-12T17:07:21.764Z,93546.53
2023-04-12T17:09:49.397Z,93545.91
2023-04-12T17:12:19.185Z,93544.84
2023-04-12T17:14:47.349Z,93544.84
2023-04-12T17:17:15.424Z,93542.78
2023-04-12T17:19:44.721Z,93548.53
2023-04-12T17:22:12.436Z,93542.34
2023-04-12T17:24:40.912Z,93535.59
2023-04-12T17:27:08.807Z,93542.75
2023-04-12T17:29:38.350Z,93539.28
2023-04-12T17:32:07.120Z,93540.63
2023-04-12T17:34:35.084Z,93542.31
2023-04-12T17:37:04.368Z,93550.50
2023-04-12T17:39:32.174Z,93541.56
2023-04-12T17:42:01.511Z,93543.47
2023-04-12T17:44:29.281Z,93553.53
2023-04-12T17:46:58.343Z,93556.91
2023-04-12T17:49:26.416Z,93558.06
2023-04-12T17:51:54.111Z,93564.09
2023-04-12T17:54:22.251Z,93564.50
2023-04-12T17:56:51.170Z,93565.50
2023-04-12T17:59:21.939Z,93579.09
2023-04-12T18:01:50.392Z,93575.59
2023-04-12T18:04:20.061Z,93585.56
2023-04-12T18:06:51.145Z,93583.53
2023-04-12T18:09:20.215Z,93592.25
2023-04-12T18:11:49.034Z,93595.34
2023-04-12T18:14:18.311Z,93596.28
2023-04-12T18:16:47.292Z,93608.84
2023-04-12T18:19:19.261Z,93615.13
2023-04-12T18:21:49.443Z,93614.91
2023-04-12T18:24:17.397Z,93625.28
2023-04-12T18:26:45.517Z,93609.00
2023-04-12T18:29:15.844Z,93615.03
2023-04-12T18:31:43.676Z,93625.66
2023-04-12T18:34:11.668Z,93628.38
2023-04-12T18:36:39.742Z,93627.56
2023-04-12T18:39:08.900Z,93632.78
2023-04-12T18:41:36.741Z,93621.63
2023-04-12T18:44:04.695Z,93627.88
2023-04-12T18:46:32.478Z,93635.78
2023-04-12T18:49:00.211Z,93630.88
2023-04-12T18:51:27.999Z,93635.50
2023-04-12T18:53:55.664Z,93639.03
2023-04-12T18:56:24.813Z,93641.50
2023-04-12T18:58:55.451Z,93644.22
2023-04-12T19:01:24.106Z,93660.81
2023-04-12T19:03:52.293Z,93660.81
2023-04-12T19:06:20.323Z,93657.59
2023-04-12T19:08:49.624Z,93652.16
2023-04-12T19:11:17.378Z,93655.16
2023-04-12T19:13:46.639Z,93659.78
2023-04-12T19:16:14.466Z,93656.25
2023-04-12T19:18:42.192Z,93658.72
2023-04-12T19:21:09.926Z,93668.47
2023-04-12T19:23:38.124Z,93668.75
2023-04-12T19:26:06.227Z,93679.06
2023-04-12T19:28:33.936Z,93678.81
2023-04-12T19:31:05.318Z,93673.09
2023-04-12T19:33:32.979Z,93674.44
2023-04-12T19:36:00.739Z,93670.91
2023-04-12T19:38:29.104Z,93665.75
2023-04-12T19:40:56.868Z,93671.72
2023-04-12T19:43:25.674Z,93662.50
2023-04-12T19:45:53.640Z,93675.50
2023-04-12T19:48:23.188Z,93677.69
2023-04-12T19:50:50.970Z,93680.13
2023-04-12T19:53:18.926Z,93666.81
2023-04-12T19:55:46.588Z,93670.06
2023-04-12T19:58:14.374Z,93678.75
2023-04-12T20:00:42.281Z,93670.59
2023-04-12T20:03:10.305Z,93673.31
2023-04-12T20:05:39.974Z,93676.81
2023-04-12T20:08:07.728Z,93675.19
2023-04-12T20:10:35.981Z,93683.06
2023-04-12T20:13:04.826Z,93680.88
2023-04-12T20:15:32.420Z,93686.00
2023-04-12T20:18:00.137Z,93688.16
2023-04-12T20:20:27.851Z,93690.84
2023-04-12T20:22:58.878Z,93690.06
2023-04-12T20:25:27.246Z,93687.88
2023-04-12T20:27:54.890Z,93689.25
2023-04-12T20:30:22.925Z,93699.25
2023-04-12T20:32:54.182Z,93688.94
2023-04-12T20:35:22.874Z,93694.34
2023-04-12T20:37:51.242Z,93690.56
2023-04-12T20:40:23.187Z,93694.84
2023-04-12T20:42:51.515Z,93698.16
2023-04-12T20:45:19.401Z,93701.41
2023-04-12T20:47:47.145Z,93708.44
2023-04-12T20:50:15.457Z,93735.75
2023-04-12T20:52:43.107Z,93752.75
2023-04-12T20:55:11.809Z,93753.44
2023-04-12T20:57:41.092Z,93749.19
2023-04-12T21:00:17.656Z,93759.00
2023-04-12T21:02:46.784Z,93758.50
2023-04-12T21:05:16.809Z,93764.97
2023-04-12T21:07:46.764Z,93776.06
2023-04-12T21:10:15.195Z,93777.16
2023-04-12T21:12:45.040Z,93784.19
2023-04-12T21:15:13.641Z,93792.28
2023-04-12T21:17:41.625Z,93785.97
2023-04-12T21:20:13.370Z,93782.22
2023-04-12T21:22:43.156Z,93796.88
2023-04-12T21:25:13.757Z,93792.53
2023-04-12T21:27:42.737Z,93794.41
2023-04-12T21:30:13.461Z,93795.50
2023-04-12T21:32:44.149Z,93797.66
2023-04-12T21:35:12.206Z,93804.41
2023-04-12T21:37:40.370Z,93815.19
2023-04-12T21:40:10.998Z,93819.22
2023-04-12T21:42:39.199Z,93820.59
2023-04-12T21:45:08.324Z,93787.19
2023-04-12T21:47:37.802Z,93777.44
2023-04-12T21:50:07.586Z,93786.13
2023-04-12T21:52:35.323Z,93771.25
2023-04-12T21:55:04.823Z,93772.00
2023-04-12T21:57:32.720Z,93777.09
2023-04-12T22:00:00.345Z,93780.31
2023-04-12T22:02:28.428Z,93787.34
2023-04-12T22:04:57.579Z,93796.00
2023-04-12T22:07:25.304Z,93801.97
2023-04-12T22:09:54.249Z,93810.88
2023-04-12T22:12:22.918Z,93815.25
2023-04-12T22:14:50.581Z,93818.47
2023-04-12T22:17:18.849Z,93812.78
2023-04-12T22:19:46.563Z,93813.59
2023-04-12T22:22:16.101Z,93807.84
2023-04-12T22:24:44.296Z,93799.97
2023-04-12T22:27:11.956Z,93792.91
2023-04-12T22:29:39.726Z,93790.78
2023-04-12T22:32:08.857Z,93798.31
2023-04-12T22:34:38.008Z,93807.25
2023-04-12T22:37:07.158Z,93804.56
2023-04-12T22:39:36.538Z,93798.66
2023-04-12T22:42:06.384Z,93794.81
2023-04-12T22:44:38.145Z,93789.88
2023-04-12T22:47:07.462Z,93788.22
2023-04-12T22:49:46.272Z,93783.63
2023-04-12T22:52:13.939Z,93784.81
2023-04-12T22:54:43.817Z,93781.47
2023-04-12T22:57:12.661Z,93785.06
2023-04-12T22:59:40.317Z,93784.25
2023-04-12T23:02:08.269Z,93781.53
2023-04-12T23:04:36.118Z,93790.78
2023-04-12T23:07:04.772Z,93790.72
2023-04-12T23:09:33.391Z,93778.88
2023-04-12T23:12:04.355Z,93790.06
2023-04-12T23:14:32.108Z,93770.06
2023-04-12T23:17:01.012Z,93777.09
2023-04-12T23:19:28.980Z,93780.03
2023-04-12T23:21:56.628Z,93781.44
2023-04-12T23:24:25.068Z,93789.81
2023-04-12T23:26:52.729Z,93793.34
2023-04-12T23:29:21.893Z,93793.34
2023-04-12T23:31:49.625Z,93789.56
2023-04-12T23:34:18.882Z,93790.25
2023-04-12T23:36:46.517Z,93786.41
2023-04-12T23:39:14.144Z,93791.78
2023-04-12T23:41:41.989Z,93799.88
2023-04-12T23:44:09.624Z,93803.63
2023-04-12T23:46:38.747Z,93814.16
2023-04-12T23:49:06.839Z,93815.44
2023-04-12T23:51:34.540Z,93848.03
2023-04-12T23:54:02.232Z,93863.28
2023-04-12T23:56:29.970Z,93863.28
2023-04-12T23:58:57.605Z,93875.09
